Time;durP1;ratioP1;P1;durP2;ratioP2;P2;SDS_P1;SDS_P2;PMS_P1;PMS_P2;Temp;Humidity;BMP_temperature;BMP_pressure;BME280_temperature;BME280_humidity;BME280_pressure;Samples;Min_cycle;Max_cycle;Signal;HPM_P1;HPM_P2
2022/06/16 06:06:09;;;;;;;7.38;4.47;;;18.90;86.30;;;;;;4980737;28;1551860;-57
2022/06/16 06:16:56;;;;;;;7.22;4.10;;;19.10;84.90;;;;;;5005563;28;20104;-53
2022/06/16 06:19:26;;;;;;;11.27;4.20;;;19.10;84.30;;;;;;4993851;28;20049;-59
2022/06/16 06:21:58;;;;;;;9.45;4.15;;;19.10;84.40;;;;;;4993909;28;20084;-56
2022/06/16 06:24:25;;;;;;;8.77;4.43;;;19.10;84.50;;;;;;5008453;28;20050;-49
2022/06/16 06:26:53;;;;;;;7.47;4.30;;;19.10;84.10;;;;;;4992893;28;20134;-49
2022/06/16 06:29:19;;;;;;;7.28;4.32;;;19.10;84.60;;;;;;5004687;28;20073;-55
2022/06/16 06:31:46;;;;;;;10.20;4.85;;;19.10;84.40;;;;;;5023539;28;20489;-58
2022/06/16 06:34:13;;;;;;;11.73;4.30;;;19.00;84.60;;;;;;4993005;28;20081;-52
2022/06/16 06:36:41;;;;;;;7.68;4.40;;;19.10;85.00;;;;;;5010399;28;20497;-49
2022/06/16 06:39:08;;;;;;;11.63;4.78;;;19.10;85.30;;;;;;4992701;28;20570;-53
2022/06/16 06:41:34;;;;;;;12.07;5.00;;;19.10;85.60;;;;;;5010362;28;20042;-57
2022/06/16 06:44:01;;;;;;;12.88;4.50;;;19.10;84.50;;;;;;5010141;28;20038;-54
2022/06/16 06:46:28;;;;;;;8.88;4.38;;;19.10;85.40;;;;;;5013545;28;20038;-56
2022/06/16 06:49:02;;;;;;;13.95;4.97;;;19.10;85.40;;;;;;5000299;28;20100;-55
2022/06/16 06:51:30;;;;;;;9.52;4.85;;;19.20;85.10;;;;;;5009782;28;20405;-54
2022/06/16 06:53:58;;;;;;;9.23;4.80;;;19.20;85.10;;;;;;5018255;28;20045;-53
2022/06/16 06:56:24;;;;;;;7.55;4.75;;;19.20;85.30;;;;;;5009772;28;20049;-51
2022/06/16 06:58:51;;;;;;;12.20;4.88;;;19.10;84.70;;;;;;5019084;28;20037;-55
2022/06/16 07:01:18;;;;;;;13.25;5.03;;;19.10;85.30;;;;;;5014594;28;20065;-50
2022/06/16 07:03:45;;;;;;;8.68;5.38;;;19.10;85.90;;;;;;5009113;28;20049;-54
2022/06/16 07:06:12;;;;;;;11.52;5.13;;;19.20;85.60;;;;;;5018975;28;20061;-57
2022/06/16 07:08:39;;;;;;;11.73;5.22;;;19.20;85.40;;;;;;5010529;28;20034;-54
2022/06/16 07:11:05;;;;;;;9.15;5.25;;;19.30;85.40;;;;;;4992219;28;20448;-52
2022/06/16 07:13:35;;;;;;;13.73;5.28;;;19.30;85.20;;;;;;5013642;28;20030;-52
2022/06/16 07:16:01;;;;;;;10.85;5.53;;;19.30;85.00;;;;;;5004566;28;20367;-50
2022/06/16 07:18:28;;;;;;;11.48;5.07;;;19.40;85.30;;;;;;5004610;28;20409;-51
2022/06/16 07:20:55;;;;;;;9.80;4.90;;;19.40;85.10;;;;;;4996479;28;20057;-53
2022/06/16 07:23:22;;;;;;;13.68;5.35;;;19.50;85.20;;;;;;4996571;28;20042;-50
2022/06/16 07:25:49;;;;;;;8.00;5.38;;;19.60;84.90;;;;;;4996469;28;20038;-54
2022/06/16 07:28:16;;;;;;;10.75;5.47;;;19.70;84.50;;;;;;4996454;28;20458;-51
2022/06/16 07:30:43;;;;;;;10.23;5.90;;;19.70;84.70;;;;;;4999569;28;20096;-55
2022/06/16 07:33:12;;;;;;;9.50;5.30;;;19.70;84.00;;;;;;4996809;28;20133;-55
2022/06/16 07:35:40;;;;;;;9.52;5.68;;;19.70;83.80;;;;;;4997118;28;20061;-52
2022/06/16 07:38:07;;;;;;;9.43;5.60;;;19.70;84.10;;;;;;4996320;28;20046;-50
2022/06/16 07:40:33;;;;;;;10.63;5.45;;;19.80;84.10;;;;;;4996135;28;20057;-52
2022/06/16 07:43:00;;;;;;;10.90;6.25;;;19.80;83.50;;;;;;4996026;28;20061;-53
2022/06/16 07:45:27;;;;;;;10.60;5.85;;;19.90;83.70;;;;;;4996120;28;20045;-53
2022/06/16 07:47:54;;;;;;;9.73;5.63;;;19.90;84.00;;;;;;4995905;28;20038;-57
2022/06/16 07:50:20;;;;;;;10.18;6.18;;;20.00;83.30;;;;;;4996055;28;20046;-56
2022/06/16 07:52:47;;;;;;;13.02;5.85;;;20.00;83.10;;;;;;4995928;28;20383;-53
2022/06/16 07:55:14;;;;;;;10.18;5.53;;;20.10;82.90;;;;;;4996001;28;20050;-55
2022/06/16 07:57:41;;;;;;;11.18;6.22;;;20.00;82.50;;;;;;4995923;28;20052;-53
2022/06/16 08:00:07;;;;;;;12.43;5.50;;;20.10;83.10;;;;;;5000554;28;20053;-53
2022/06/16 08:02:38;;;;;;;11.20;5.60;;;20.10;83.50;;;;;;4995975;28;20050;-52
2022/06/16 08:05:05;;;;;;;14.43;8.52;;;20.20;83.10;;;;;;4998569;28;20393;-53
2022/06/16 08:07:31;;;;;;;8.98;5.32;;;20.30;83.80;;;;;;5006557;28;20042;-55
2022/06/16 08:09:58;;;;;;;12.40;5.65;;;20.40;83.00;;;;;;4978388;28;20046;-55
2022/06/16 08:12:26;;;;;;;10.73;5.20;;;20.50;82.70;;;;;;4995495;28;20042;-55
2022/06/16 08:14:53;;;;;;;8.43;4.93;;;20.60;82.90;;;;;;4995410;28;20165;-56
2022/06/16 08:17:20;;;;;;;15.65;5.28;;;20.60;83.00;;;;;;4995396;28;20046;-52
2022/06/16 08:19:47;;;;;;;12.60;5.10;;;20.70;83.20;;;;;;4995472;28;20034;-52
2022/06/16 08:22:14;;;;;;;9.57;4.60;;;20.80;83.40;;;;;;4995379;28;20501;-55
2022/06/16 08:24:41;;;;;;;19.85;5.30;;;20.80;83.10;;;;;;4995240;28;20049;-49
2022/06/16 08:27:08;;;;;;;20.77;5.07;;;20.90;83.50;;;;;;4994877;28;20054;-54
2022/06/16 08:29:35;;;;;;;8.73;5.03;;;20.90;83.50;;;;;;4994550;28;20450;-51
2022/06/16 08:32:01;;;;;;;10.93;4.45;;;21.00;83.00;;;;;;5012745;28;20042;-53
2022/06/16 08:34:28;;;;;;;11.57;5.38;;;21.00;82.90;;;;;;5013884;28;20401;-51
2022/06/16 08:36:55;;;;;;;14.00;4.90;;;21.00;82.90;;;;;;5013961;28;20046;-51
2022/06/16 08:39:22;;;;;;;8.80;4.68;;;21.10;83.10;;;;;;5013906;28;20037;-55
2022/06/16 08:41:48;;;;;;;14.38;5.07;;;21.20;82.50;;;;;;5013966;28;20049;-58
2022/06/16 08:44:15;;;;;;;9.80;5.45;;;21.20;82.50;;;;;;5004612;28;20422;-50
2022/06/16 08:46:42;;;;;;;15.27;4.65;;;21.30;82.20;;;;;;4984032;28;20122;-53
2022/06/16 08:49:09;;;;;;;9.13;4.50;;;21.30;83.00;;;;;;5013616;28;20042;-53
2022/06/16 08:51:36;;;;;;;8.90;4.10;;;21.40;82.90;;;;;;5003084;28;20046;-49
2022/06/16 08:54:03;;;;;;;11.90;4.63;;;21.50;82.40;;;;;;4994649;28;20117;-56
2022/06/16 08:56:29;;;;;;;11.00;4.32;;;21.60;82.70;;;;;;4994976;28;20042;-50
2022/06/16 08:58:58;;;;;;;9.73;4.13;;;21.70;83.00;;;;;;4994851;28;20044;-54
2022/06/16 09:01:24;;;;;;;17.50;4.78;;;21.80;82.30;;;;;;4994557;28;20038;-54
2022/06/16 09:03:51;;;;;;;8.15;3.90;;;21.90;82.10;;;;;;5004766;28;20486;-49
2022/06/16 09:06:18;;;;;;;9.30;4.22;;;22.00;80.90;;;;;;5013341;28;20140;-53
2022/06/16 09:08:45;;;;;;;11.65;4.60;;;22.10;81.20;;;;;;4995672;28;20056;-51
2022/06/16 09:11:11;;;;;;;8.32;3.53;;;22.20;81.10;;;;;;5013145;28;20050;-54
2022/06/16 09:13:40;;;;;;;8.85;4.50;;;22.20;81.30;;;;;;5009417;28;20421;-52
2022/06/16 09:16:07;;;;;;;9.32;3.65;;;22.30;81.00;;;;;;4996809;28;20034;-55
2022/06/16 09:18:34;;;;;;;7.65;4.13;;;22.30;81.20;;;;;;5007222;28;20053;-50
2022/06/16 09:21:00;;;;;;;9.85;4.15;;;22.50;79.80;;;;;;4994274;28;20046;-52
2022/06/16 09:23:27;;;;;;;9.88;3.65;;;22.50;79.60;;;;;;4994177;28;20485;-50
2022/06/16 09:25:54;;;;;;;7.38;4.22;;;22.60;79.70;;;;;;5004232;28;20049;-54
2022/06/16 09:28:21;;;;;;;10.05;3.60;;;22.70;79.40;;;;;;4995444;28;20473;-51
2022/06/16 09:30:48;;;;;;;8.65;3.00;;;22.90;77.80;;;;;;5013228;28;20060;-57
2022/06/16 09:33:15;;;;;;;8.25;3.55;;;23.10;75.00;;;;;;4996968;28;20057;-53
2022/06/16 09:35:41;;;;;;;132.10;89.72;;;23.30;74.80;;;;;;5000806;28;20038;-51
2022/06/16 09:38:08;;;;;;;14.40;6.93;;;23.40;72.40;;;;;;5006961;28;20049;-51
2022/06/16 09:40:35;;;;;;;8.15;3.70;;;23.60;69.10;;;;;;4996041;28;20066;-50
2022/06/16 09:43:02;;;;;;;8.30;3.30;;;23.80;69.20;;;;;;4993843;28;20044;-55
2022/06/16 09:45:28;;;;;;;8.18;3.20;;;23.80;71.50;;;;;;4993982;28;20042;-51
2022/06/16 09:47:56;;;;;;;9.88;2.97;;;24.00;71.10;;;;;;5005249;28;20490;-51
2022/06/16 09:50:22;;;;;;;8.82;3.22;;;24.10;70.70;;;;;;4994213;28;20053;-54
2022/06/16 09:52:49;;;;;;;6.78;2.40;;;24.10;71.40;;;;;;5009333;28;20041;-53
2022/06/16 09:55:16;;;;;;;6.95;2.35;;;24.30;70.30;;;;;;4994880;28;20480;-47
2022/06/16 09:57:43;;;;;;;5.03;2.20;;;24.40;67.10;;;;;;5012651;28;20074;-48
2022/06/16 10:00:10;;;;;;;6.32;2.75;;;24.50;67.30;;;;;;5004424;28;20042;-45
2022/06/16 10:02:40;;;;;;;10.00;2.50;;;24.60;67.20;;;;;;4993875;28;20086;-50
2022/06/16 10:05:07;;;;;;;7.22;2.50;;;24.60;66.00;;;;;;4979218;28;20088;-49
2022/06/16 10:07:34;;;;;;;6.25;2.42;;;24.60;64.80;;;;;;4994743;28;20050;-51
2022/06/16 10:10:01;;;;;;;6.93;2.10;;;24.70;65.00;;;;;;5012324;28;20050;-53
2022/06/16 10:12:28;;;;;;;6.03;2.10;;;24.80;65.20;;;;;;5012486;28;20054;-52
2022/06/16 10:14:55;;;;;;;9.55;2.67;;;24.90;63.70;;;;;;4994500;28;20088;-52
2022/06/16 10:17:23;;;;;;;5.10;2.33;;;24.90;64.10;;;;;;5012395;28;20049;-53
2022/06/16 10:19:50;;;;;;;5.68;2.05;;;25.00;63.60;;;;;;5012409;28;20046;-48
2022/06/16 10:22:17;;;;;;;6.07;2.10;;;24.90;64.00;;;;;;5012233;28;20045;-47
2022/06/16 10:24:44;;;;;;;4.80;2.10;;;24.90;63.20;;;;;;4994487;28;20497;-49
2022/06/16 10:27:10;;;;;;;8.35;2.20;;;24.90;63.90;;;;;;5012259;28;20080;-48
2022/06/16 10:29:37;;;;;;;8.63;2.38;;;24.90;64.30;;;;;;5012365;28;20057;-52
2022/06/16 10:32:04;;;;;;;5.70;2.10;;;25.00;64.30;;;;;;5012151;28;20038;-51
2022/06/16 10:34:31;;;;;;;5.47;2.13;;;25.10;63.00;;;;;;5009352;28;20042;-50
2022/06/16 10:36:57;;;;;;;6.18;2.17;;;25.20;61.60;;;;;;4998602;28;20914;-46
2022/06/16 10:39:24;;;;;;;7.00;2.10;;;25.20;62.60;;;;;;4997857;28;20051;-52
2022/06/16 10:41:51;;;;;;;5.43;2.05;;;25.20;62.20;;;;;;4993448;28;20093;-51
2022/06/16 10:44:18;;;;;;;5.68;2.28;;;25.30;62.80;;;;;;4993283;28;20129;-49
2022/06/16 10:46:45;;;;;;;4.72;1.98;;;25.30;62.40;;;;;;4993293;28;20069;-49
2022/06/16 10:49:11;;;;;;;5.47;2.20;;;25.40;62.20;;;;;;4993086;28;20054;-50
2022/06/16 10:51:38;;;;;;;7.20;2.80;;;25.50;63.40;;;;;;4994700;28;20449;-49
2022/06/16 10:54:05;;;;;;;5.65;2.40;;;25.50;62.80;;;;;;4996900;28;20050;-51
2022/06/16 10:56:32;;;;;;;4.75;2.15;;;25.50;62.90;;;;;;4996790;28;20068;-52
2022/06/16 10:58:58;;;;;;;5.07;2.03;;;25.60;63.70;;;;;;4997007;28;20049;-50
2022/06/16 11:01:25;;;;;;;8.88;2.13;;;25.70;61.90;;;;;;4996853;28;20445;-53
2022/06/16 11:03:52;;;;;;;5.88;2.28;;;25.70;62.30;;;;;;4996506;28;20078;-49
2022/06/16 11:06:19;;;;;;;5.60;2.40;;;25.80;63.80;;;;;;5009366;28;20060;-49
2022/06/16 11:08:46;;;;;;;5.40;2.40;;;25.80;63.00;;;;;;5015492;28;20050;-54
2022/06/16 11:11:15;;;;;;;7.18;2.33;;;25.90;61.90;;;;;;5015518;28;20042;-51
2022/06/16 11:13:42;;;;;;;4.65;2.10;;;26.00;62.50;;;;;;5015231;28;20050;-50
2022/06/16 11:16:10;;;;;;;7.95;2.00;;;26.00;61.80;;;;;;5015171;28;20378;-48
2022/06/16 11:18:37;;;;;;;7.97;2.50;;;26.00;62.80;;;;;;5015218;28;20050;-51
2022/06/16 11:21:03;;;;;;;5.00;2.20;;;26.00;61.90;;;;;;5009788;28;20096;-50
2022/06/16 11:23:30;;;;;;;5.00;1.90;;;26.00;60.90;;;;;;4999829;28;20034;-52
2022/06/16 11:25:57;;;;;;;6.97;2.30;;;26.00;60.50;;;;;;4999069;28;20112;-50
2022/06/16 11:28:24;;;;;;;8.15;2.10;;;26.00;61.00;;;;;;4997669;28;20414;-50
2022/06/16 11:30:51;;;;;;;5.28;2.03;;;26.00;62.10;;;;;;4996304;28;20058;-55
2022/06/16 11:34:06;;;;;;;5.90;2.28;;;26.10;60.60;;;;;;4996238;28;20050;-56
2022/06/16 11:36:04;;;;;;;12.05;2.40;;;26.10;60.00;;;;;;5006748;28;20038;-53
2022/06/16 11:38:31;;;;;;;4.90;2.22;;;26.00;61.00;;;;;;5014936;28;20092;-53
2022/06/16 11:40:58;;;;;;;8.38;1.92;;;25.90;60.00;;;;;;5015202;28;20049;-49
2022/06/16 11:43:25;;;;;;;8.88;2.30;;;26.00;58.60;;;;;;5014448;28;20042;-54
2022/06/16 11:45:52;;;;;;;8.57;2.72;;;26.10;59.40;;;;;;5014931;28;20046;-53
2022/06/16 11:48:18;;;;;;;6.70;2.70;;;26.20;59.60;;;;;;5014681;28;20111;-54
2022/06/16 11:50:45;;;;;;;7.93;2.67;;;26.20;58.00;;;;;;4997092;28;20505;-50
2022/06/16 11:53:12;;;;;;;6.30;2.58;;;26.10;59.90;;;;;;5014444;28;20050;-51
2022/06/16 11:55:38;;;;;;;6.97;2.38;;;26.20;60.00;;;;;;4995306;28;20164;-51
2022/06/16 11:58:05;;;;;;;4.25;2.28;;;26.20;59.40;;;;;;4999531;28;20136;-53
2022/06/16 12:00:32;;;;;;;9.98;2.88;;;26.30;59.50;;;;;;4999525;28;20034;-50
2022/06/16 12:03:19;;;;;;;6.43;2.47;;;26.40;59.40;;;;;;4983808;28;20542;-56
2022/06/16 12:05:47;;;;;;;9.65;2.92;;;26.60;60.60;;;;;;4999968;28;20173;-54
2022/06/16 12:08:13;;;;;;;9.00;2.88;;;26.70;60.20;;;;;;4998729;28;20050;-47
2022/06/16 12:10:40;;;;;;;7.43;2.30;;;26.80;59.50;;;;;;4999136;28;20046;-54
2022/06/16 12:13:07;;;;;;;7.55;2.47;;;27.00;60.80;;;;;;4996157;28;20042;-53
2022/06/16 12:15:34;;;;;;;8.10;2.38;;;27.20;59.80;;;;;;4996034;28;20406;-57
2022/06/16 12:18:01;;;;;;;10.02;2.22;;;27.30;60.30;;;;;;4997038;28;20129;-55
2022/06/16 12:20:27;;;;;;;8.05;2.47;;;27.50;59.40;;;;;;4997979;28;20050;-55
2022/06/16 12:43:16;;;;;;;6.05;2.42;;;27.90;58.80;;;;;;5010755;28;20028;-56
2022/06/16 12:45:43;;;;;;;5.40;1.80;;;27.80;56.20;;;;;;5013956;28;20038;-57
2022/06/16 12:48:10;;;;;;;8.43;2.05;;;27.80;56.70;;;;;;5013738;28;20046;-55
2022/06/16 12:50:36;;;;;;;5.80;2.15;;;27.80;56.70;;;;;;5013813;28;20049;-55
2022/06/16 12:53:03;;;;;;;7.07;2.00;;;27.80;55.60;;;;;;5013648;28;20125;-54
2022/06/16 12:55:30;;;;;;;4.85;2.25;;;27.80;55.80;;;;;;5013525;28;20472;-54
2022/06/16 12:57:57;;;;;;;3.75;1.90;;;27.80;55.40;;;;;;5013373;28;20147;-50
2022/06/16 13:00:24;;;;;;;4.13;2.13;;;27.70;55.50;;;;;;5013403;28;20068;-51
2022/06/16 13:02:51;;;;;;;3.85;1.98;;;27.60;55.80;;;;;;5013499;28;20096;-52
2022/06/16 13:05:18;;;;;;;6.15;1.80;;;27.60;55.70;;;;;;4995793;28;20054;-52
2022/06/16 13:07:45;;;;;;;5.88;2.15;;;27.60;53.60;;;;;;5004987;28;20043;-54
2022/06/16 13:10:14;;;;;;;3.72;1.80;;;27.50;54.50;;;;;;5002765;28;20052;-54
2022/06/16 13:12:43;;;;;;;5.72;1.60;;;27.50;55.00;;;;;;5000345;28;20046;-55
2022/06/16 13:15:10;;;;;;;3.90;1.70;;;27.50;54.20;;;;;;4993779;28;20485;-53
2022/06/16 13:17:36;;;;;;;3.92;1.60;;;27.40;53.70;;;;;;4994356;28;20046;-55
2022/06/16 13:20:03;;;;;;;5.95;2.00;;;27.30;53.20;;;;;;4995200;28;20450;-56
2022/06/16 13:22:31;;;;;;;3.83;1.40;;;27.20;52.70;;;;;;4995034;28;20481;-53
2022/06/16 13:24:58;;;;;;;4.43;1.80;;;27.10;52.40;;;;;;4995140;28;20046;-55
2022/06/16 13:27:25;;;;;;;4.68;1.52;;;27.00;53.00;;;;;;4995215;28;20150;-56
2022/06/16 13:29:52;;;;;;;4.15;1.67;;;27.10;53.50;;;;;;4994074;28;20045;-51
2022/06/16 13:32:19;;;;;;;6.50;2.00;;;27.10;52.20;;;;;;5008223;28;20050;-54
2022/06/16 13:34:46;;;;;;;10.43;2.20;;;27.20;53.30;;;;;;5012722;28;20050;-52
2022/06/16 13:37:13;;;;;;;4.47;1.67;;;27.30;54.00;;;;;;5012412;28;20038;-50
2022/06/16 13:39:40;;;;;;;4.20;1.67;;;27.30;54.40;;;;;;5013042;28;20052;-52
2022/06/16 13:42:07;;;;;;;4.78;1.70;;;27.40;54.90;;;;;;5012677;28;20045;-53
2022/06/16 13:44:34;;;;;;;4.40;1.58;;;27.40;54.10;;;;;;5012450;28;20081;-50
2022/06/16 13:47:00;;;;;;;4.78;1.65;;;27.50;54.30;;;;;;5012915;28;20053;-57
2022/06/16 13:49:27;;;;;;;4.57;1.85;;;27.50;53.50;;;;;;5012882;28;20049;-51
2022/06/16 13:51:54;;;;;;;4.40;1.60;;;27.50;53.70;;;;;;4995200;28;20485;-56
2022/06/16 13:54:21;;;;;;;5.00;1.60;;;27.50;54.60;;;;;;5012790;28;20060;-56
2022/06/16 13:56:47;;;;;;;4.88;1.80;;;27.50;54.40;;;;;;5012525;28;20096;-56
2022/06/16 13:59:15;;;;;;;3.83;1.80;;;27.50;53.90;;;;;;5012780;28;20121;-57
2022/06/16 14:01:42;;;;;;;4.85;1.85;;;27.40;54.20;;;;;;5012677;28;20366;-57
2022/06/16 14:04:09;;;;;;;4.55;1.75;;;27.30;52.90;;;;;;5012132;28;20045;-58
2022/06/16 14:06:36;;;;;;;6.38;2.08;;;27.30;53.70;;;;;;5012666;28;20092;-51
2022/06/16 14:09:03;;;;;;;4.50;1.80;;;27.30;54.00;;;;;;5012540;28;20486;-56
2022/06/16 14:11:29;;;;;;;8.88;2.05;;;27.40;54.80;;;;;;5012271;28;20041;-57
2022/06/16 14:13:56;;;;;;;5.25;1.90;;;27.60;54.50;;;;;;5011612;28;20038;-52
2022/06/16 14:16:23;;;;;;;4.40;1.90;;;27.80;53.20;;;;;;5012480;28;20038;-53
2022/06/16 14:18:52;;;;;;;5.85;1.70;;;27.90;53.20;;;;;;4994872;28;20046;-52
2022/06/16 14:21:22;;;;;;;5.75;1.85;;;28.00;53.50;;;;;;5003325;28;20502;-54
2022/06/16 14:23:49;;;;;;;7.18;1.85;;;28.20;52.80;;;;;;4993594;28;20042;-53
2022/06/16 14:26:16;;;;;;;4.50;1.75;;;28.20;52.50;;;;;;4994809;28;20057;-53
2022/06/16 14:28:43;;;;;;;6.28;1.77;;;28.30;52.80;;;;;;5001564;28;20101;-57
2022/06/16 14:31:10;;;;;;;3.97;1.85;;;28.40;52.10;;;;;;5003729;28;20551;-52
2022/06/16 14:33:37;;;;;;;6.70;1.70;;;28.40;52.20;;;;;;4997390;28;20045;-59
2022/06/16 14:36:03;;;;;;;6.43;1.60;;;28.40;51.90;;;;;;5004929;28;20485;-53
2022/06/16 14:38:30;;;;;;;7.45;1.83;;;28.30;52.10;;;;;;4999411;28;20379;-55
2022/06/16 14:40:57;;;;;;;4.20;1.85;;;28.30;52.20;;;;;;4997412;28;20048;-58
2022/06/16 14:43:24;;;;;;;5.75;1.90;;;28.30;52.40;;;;;;4999981;28;20069;-54
2022/06/16 14:45:50;;;;;;;3.45;1.50;;;28.20;52.30;;;;;;5016130;28;20041;-57
2022/06/16 14:48:17;;;;;;;4.88;1.90;;;28.20;52.50;;;;;;5016033;28;20099;-56
2022/06/16 14:50:44;;;;;;;3.90;1.88;;;28.30;52.70;;;;;;5016095;28;20040;-54
2022/06/16 14:53:11;;;;;;;6.30;1.75;;;28.30;52.90;;;;;;5008775;28;20050;-56
2022/06/16 14:55:38;;;;;;;5.53;1.65;;;28.20;51.80;;;;;;4997899;28;20039;-49
2022/06/16 14:58:05;;;;;;;3.40;1.67;;;28.20;52.70;;;;;;5016027;28;20042;-54
2022/06/16 15:00:32;;;;;;;4.10;1.52;;;28.30;52.40;;;;;;5015942;28;20038;-54
2022/06/16 15:02:59;;;;;;;4.25;1.50;;;28.30;52.10;;;;;;5016250;28;20116;-49
2022/06/16 15:05:26;;;;;;;3.85;1.70;;;28.40;51.30;;;;;;5015811;28;20125;-59
2022/06/16 15:07:53;;;;;;;2.75;1.60;;;28.40;52.60;;;;;;5015467;28;20153;-54
2022/06/16 15:10:20;;;;;;;4.93;1.80;;;28.40;52.10;;;;;;5015582;28;20046;-54
2022/06/16 15:12:46;;;;;;;5.65;2.03;;;28.40;53.80;;;;;;5015629;28;20050;-54
2022/06/16 15:15:13;;;;;;;4.75;1.98;;;28.50;52.20;;;;;;5015343;28;20440;-54
2022/06/16 15:18:26;;;;;;;6.40;1.88;;;28.70;51.20;;;;;;5015141;28;20041;-50
2022/06/16 15:20:27;;;;;;;3.78;1.63;;;28.80;51.10;;;;;;5004989;28;20050;-54
2022/06/16 15:22:54;;;;;;;4.88;1.60;;;29.00;51.30;;;;;;5015149;28;20096;-56
2022/06/16 15:25:21;;;;;;;3.63;1.33;;;29.10;51.00;;;;;;4997989;28;20472;-54
2022/06/16 15:27:48;;;;;;;4.15;1.80;;;29.10;50.80;;;;;;5015241;28;20050;-52
2022/06/16 15:30:15;;;;;;;4.38;1.90;;;29.20;50.50;;;;;;5005704;28;20354;-55
2022/06/16 15:38:15;;;;;;;5.30;2.60;;;29.70;52.70;;;;;;5008880;28;20049;-49
2022/06/16 15:40:42;;;;;;;4.88;2.38;;;29.80;52.90;;;;;;5001005;28;20046;-52
2022/06/16 15:43:09;;;;;;;8.60;2.15;;;30.00;52.90;;;;;;4996915;28;20050;-54
2022/06/16 15:45:36;;;;;;;5.20;2.20;;;30.30;53.20;;;;;;5015317;28;20504;-57
2022/06/16 15:48:03;;;;;;;4.85;1.70;;;30.70;52.90;;;;;;5015104;28;20038;-56
2022/06/16 15:50:30;;;;;;;6.15;1.88;;;31.30;50.90;;;;;;5014979;28;20042;-54
2022/06/16 15:52:58;;;;;;;5.80;1.77;;;31.60;50.70;;;;;;5014882;28;20429;-54
2022/06/16 15:55:25;;;;;;;3.67;1.63;;;32.10;49.30;;;;;;5015228;28;20566;-58
2022/06/16 15:57:52;;;;;;;4.47;2.17;;;32.30;49.40;;;;;;5015225;28;20056;-53
2022/06/16 16:00:19;;;;;;;5.97;1.75;;;32.30;49.00;;;;;;5014767;28;20092;-50
2022/06/16 16:02:46;;;;;;;6.03;1.83;;;32.30;49.20;;;;;;4996974;28;20049;-58
2022/06/16 16:05:13;;;;;;;5.47;1.80;;;32.40;48.90;;;;;;4993408;28;20047;-55
2022/06/16 16:07:39;;;;;;;5.68;1.70;;;32.80;48.70;;;;;;4992079;28;20051;-53
2022/06/16 16:10:06;;;;;;;7.05;1.70;;;32.70;47.60;;;;;;4976155;28;20050;-53
2022/06/16 16:12:33;;;;;;;4.47;1.60;;;32.70;48.00;;;;;;4975106;28;20521;-53
2022/06/16 16:15:00;;;;;;;3.30;1.60;;;32.80;48.90;;;;;;4989993;28;20038;-51
2022/06/16 16:17:26;;;;;;;7.25;2.05;;;32.60;48.70;;;;;;4976045;28;20043;-54
2022/06/16 17:29:26;;;;;;;4.60;2.30;;;32.70;49.20;;;;;;5101514;27;1347802;-53
2022/06/16 17:31:53;;;;;;;6.38;1.92;;;32.60;50.00;;;;;;5125133;28;20049;-56
2022/06/16 17:34:22;;;;;;;4.70;2.05;;;32.70;50.50;;;;;;5121412;28;20035;-54
2022/06/16 17:36:48;;;;;;;9.73;2.60;;;32.60;50.30;;;;;;5119574;27;20041;-54
2022/06/16 17:39:15;;;;;;;6.53;2.08;;;32.80;50.20;;;;;;5127498;28;20070;-53
2022/06/16 17:41:45;;;;;;;5.88;1.88;;;32.80;49.90;;;;;;5123899;28;20046;-55
2022/06/16 17:44:16;;;;;;;5.88;2.08;;;32.80;50.70;;;;;;5124244;28;20070;-56
2022/06/16 17:46:43;;;;;;;5.70;1.95;;;32.90;50.00;;;;;;5123619;28;20039;-55
2022/06/16 17:49:10;;;;;;;5.57;1.70;;;32.70;49.70;;;;;;5124479;28;20100;-58
